sensor_id;sensor_type;location;lat;lon;timestamp;temperature;humidity
3727;DHT22;1879;45.876;12.300;2023-02-28T00:00:30;5.50;57.30
3727;DHT22;1879;45.876;12.300;2023-02-28T00:02:57;5.50;57.60
3727;DHT22;1879;45.876;12.300;2023-02-28T00:05:26;5.50;57.20
3727;DHT22;1879;45.876;12.300;2023-02-28T00:07:54;5.60;57.20
3727;DHT22;1879;45.876;12.300;2023-02-28T00:10:23;5.50;57.10
3727;DHT22;1879;45.876;12.300;2023-02-28T00:12:52;5.50;57.10
3727;DHT22;1879;45.876;12.300;2023-02-28T00:15:20;5.50;57.10
3727;DHT22;1879;45.876;12.300;2023-02-28T00:17:48;5.40;57.30
3727;DHT22;1879;45.876;12.300;2023-02-28T00:20:15;5.40;57.40
3727;DHT22;1879;45.876;12.300;2023-02-28T00:22:44;5.40;57.50
3727;DHT22;1879;45.876;12.300;2023-02-28T00:25:14;5.40;57.40
3727;DHT22;1879;45.876;12.300;2023-02-28T00:27:42;5.40;57.50
3727;DHT22;1879;45.876;12.300;2023-02-28T00:30:12;5.40;58.20
3727;DHT22;1879;45.876;12.300;2023-02-28T00:32:40;5.40;57.90
3727;DHT22;1879;45.876;12.300;2023-02-28T00:35:09;5.40;57.80
3727;DHT22;1879;45.876;12.300;2023-02-28T00:37:36;5.40;57.70
3727;DHT22;1879;45.876;12.300;2023-02-28T00:40:04;5.40;58.00
3727;DHT22;1879;45.876;12.300;2023-02-28T00:42:32;5.40;57.80
3727;DHT22;1879;45.876;12.300;2023-02-28T00:44:59;5.40;57.90
3727;DHT22;1879;45.876;12.300;2023-02-28T00:47:28;5.40;57.80
3727;DHT22;1879;45.876;12.300;2023-02-28T00:49:55;5.30;57.70
3727;DHT22;1879;45.876;12.300;2023-02-28T00:52:22;5.30;58.00
3727;DHT22;1879;45.876;12.300;2023-02-28T00:54:49;5.30;58.00
3727;DHT22;1879;45.876;12.300;2023-02-28T00:57:16;5.30;58.10
3727;DHT22;1879;45.876;12.300;2023-02-28T00:59:43;5.20;58.00
3727;DHT22;1879;45.876;12.300;2023-02-28T01:02:10;5.30;58.10
3727;DHT22;1879;45.876;12.300;2023-02-28T01:04:38;5.30;58.10
3727;DHT22;1879;45.876;12.300;2023-02-28T01:07:05;5.30;58.00
3727;DHT22;1879;45.876;12.300;2023-02-28T01:09:32;5.30;58.40
3727;DHT22;1879;45.876;12.300;2023-02-28T01:11:59;5.30;57.90
3727;DHT22;1879;45.876;12.300;2023-02-28T01:14:26;5.30;57.90
3727;DHT22;1879;45.876;12.300;2023-02-28T01:16:53;5.30;58.10
3727;DHT22;1879;45.876;12.300;2023-02-28T01:19:20;5.30;58.10
3727;DHT22;1879;45.876;12.300;2023-02-28T01:21:48;5.30;58.30
3727;DHT22;1879;45.876;12.300;2023-02-28T01:24:15;5.20;58.40
3727;DHT22;1879;45.876;12.300;2023-02-28T01:26:42;5.20;58.60
3727;DHT22;1879;45.876;12.300;2023-02-28T01:29:09;5.20;58.70
3727;DHT22;1879;45.876;12.300;2023-02-28T01:31:36;5.20;58.70
3727;DHT22;1879;45.876;12.300;2023-02-28T01:34:03;5.20;58.80
3727;DHT22;1879;45.876;12.300;2023-02-28T01:36:30;5.20;58.90
3727;DHT22;1879;45.876;12.300;2023-02-28T01:38:59;5.20;59.10
3727;DHT22;1879;45.876;12.300;2023-02-28T01:41:27;5.20;59.10
3727;DHT22;1879;45.876;12.300;2023-02-28T01:43:57;5.20;58.90
3727;DHT22;1879;45.876;12.300;2023-02-28T01:46:25;5.20;58.90
3727;DHT22;1879;45.876;12.300;2023-02-28T01:48:54;5.30;59.10
3727;DHT22;1879;45.876;12.300;2023-02-28T01:51:26;5.40;58.80
3727;DHT22;1879;45.876;12.300;2023-02-28T01:53:58;5.50;58.70
3727;DHT22;1879;45.876;12.300;2023-02-28T01:56:30;5.60;58.60
3727;DHT22;1879;45.876;12.300;2023-02-28T01:58:59;5.60;58.40
3727;DHT22;1879;45.876;12.300;2023-02-28T02:01:27;5.70;58.40
3727;DHT22;1879;45.876;12.300;2023-02-28T02:03:56;5.70;58.40
3727;DHT22;1879;45.876;12.300;2023-02-28T02:06:27;5.80;58.90
3727;DHT22;1879;45.876;12.300;2023-02-28T02:08:55;5.80;58.30
3727;DHT22;1879;45.876;12.300;2023-02-28T02:11:23;5.80;58.10
3727;DHT22;1879;45.876;12.300;2023-02-28T02:14:07;5.80;58.20
3727;DHT22;1879;45.876;12.300;2023-02-28T02:16:45;5.80;58.10
3727;DHT22;1879;45.876;12.300;2023-02-28T02:19:29;5.90;58.10
3727;DHT22;1879;45.876;12.300;2023-02-28T02:25:13;5.90;58.20
3727;DHT22;1879;45.876;12.300;2023-02-28T02:28:05;6.00;58.20
3727;DHT22;1879;45.876;12.300;2023-02-28T02:31:08;6.00;58.20
3727;DHT22;1879;45.876;12.300;2023-02-28T02:34:04;6.10;58.10
3727;DHT22;1879;45.876;12.300;2023-02-28T02:36:36;6.10;58.10
3727;DHT22;1879;45.876;12.300;2023-02-28T02:39:11;6.10;58.20
3727;DHT22;1879;45.876;12.300;2023-02-28T02:41:46;6.10;58.10
3727;DHT22;1879;45.876;12.300;2023-02-28T02:44:20;6.10;58.30
3727;DHT22;1879;45.876;12.300;2023-02-28T02:46:49;6.10;58.50
3727;DHT22;1879;45.876;12.300;2023-02-28T02:49:24;6.10;58.40
3727;DHT22;1879;45.876;12.300;2023-02-28T02:51:53;6.10;58.40
3727;DHT22;1879;45.876;12.300;2023-02-28T02:54:25;6.10;58.70
3727;DHT22;1879;45.876;12.300;2023-02-28T02:56:56;6.10;58.60
3727;DHT22;1879;45.876;12.300;2023-02-28T02:59:24;6.20;58.40
3727;DHT22;1879;45.876;12.300;2023-02-28T03:01:55;6.20;58.70
3727;DHT22;1879;45.876;12.300;2023-02-28T03:04:26;6.20;58.50
3727;DHT22;1879;45.876;12.300;2023-02-28T03:06:55;6.20;58.40
3727;DHT22;1879;45.876;12.300;2023-02-28T03:09:22;6.20;58.50
3727;DHT22;1879;45.876;12.300;2023-02-28T03:11:51;6.20;58.90
3727;DHT22;1879;45.876;12.300;2023-02-28T03:14:37;6.20;58.40
3727;DHT22;1879;45.876;12.300;2023-02-28T03:17:24;6.20;58.30
3727;DHT22;1879;45.876;12.300;2023-02-28T03:20:04;6.20;58.50
3727;DHT22;1879;45.876;12.300;2023-02-28T03:22:51;6.20;58.50
3727;DHT22;1879;45.876;12.300;2023-02-28T03:25:27;6.20;58.50
3727;DHT22;1879;45.876;12.300;2023-02-28T03:28:02;6.20;58.20
3727;DHT22;1879;45.876;12.300;2023-02-28T03:30:36;6.20;58.20
3727;DHT22;1879;45.876;12.300;2023-02-28T03:33:08;6.30;58.20
3727;DHT22;1879;45.876;12.300;2023-02-28T03:35:42;6.30;58.20
3727;DHT22;1879;45.876;12.300;2023-02-28T03:38:14;6.20;58.40
3727;DHT22;1879;45.876;12.300;2023-02-28T03:40:47;6.20;58.30
3727;DHT22;1879;45.876;12.300;2023-02-28T03:43:19;6.20;58.50
3727;DHT22;1879;45.876;12.300;2023-02-28T03:45:50;6.20;58.70
3727;DHT22;1879;45.876;12.300;2023-02-28T03:48:20;6.20;58.50
3727;DHT22;1879;45.876;12.300;2023-02-28T03:50:53;6.20;58.50
3727;DHT22;1879;45.876;12.300;2023-02-28T03:53:25;6.20;58.50
3727;DHT22;1879;45.876;12.300;2023-02-28T03:55:56;6.20;58.60
3727;DHT22;1879;45.876;12.300;2023-02-28T03:58:29;6.20;58.60
3727;DHT22;1879;45.876;12.300;2023-02-28T04:01:00;6.20;58.80
3727;DHT22;1879;45.876;12.300;2023-02-28T04:03:34;6.20;58.70
3727;DHT22;1879;45.876;12.300;2023-02-28T04:06:04;6.10;58.80
3727;DHT22;1879;45.876;12.300;2023-02-28T04:08:32;6.10;58.80
3727;DHT22;1879;45.876;12.300;2023-02-28T04:11:03;6.10;58.70
3727;DHT22;1879;45.876;12.300;2023-02-28T04:13:31;6.10;59.00
3727;DHT22;1879;45.876;12.300;2023-02-28T04:15:58;6.00;58.80
3727;DHT22;1879;45.876;12.300;2023-02-28T04:18:25;6.00;59.40
3727;DHT22;1879;45.876;12.300;2023-02-28T04:20:52;6.00;59.00
3727;DHT22;1879;45.876;12.300;2023-02-28T04:23:20;6.00;59.20
3727;DHT22;1879;45.876;12.300;2023-02-28T04:25:47;6.00;59.00
3727;DHT22;1879;45.876;12.300;2023-02-28T04:28:16;6.00;59.30
3727;DHT22;1879;45.876;12.300;2023-02-28T04:30:43;6.00;59.30
3727;DHT22;1879;45.876;12.300;2023-02-28T04:33:10;6.00;59.40
3727;DHT22;1879;45.876;12.300;2023-02-28T04:35:37;6.00;59.70
3727;DHT22;1879;45.876;12.300;2023-02-28T04:38:04;6.00;59.80
3727;DHT22;1879;45.876;12.300;2023-02-28T04:40:32;6.00;59.60
3727;DHT22;1879;45.876;12.300;2023-02-28T04:42:59;6.00;59.70
3727;DHT22;1879;45.876;12.300;2023-02-28T04:45:26;6.00;59.50
3727;DHT22;1879;45.876;12.300;2023-02-28T04:47:55;6.00;59.50
3727;DHT22;1879;45.876;12.300;2023-02-28T04:50:22;6.00;59.60
3727;DHT22;1879;45.876;12.300;2023-02-28T04:52:49;6.00;60.00
3727;DHT22;1879;45.876;12.300;2023-02-28T04:55:16;5.90;59.80
3727;DHT22;1879;45.876;12.300;2023-02-28T04:57:45;5.90;60.10
3727;DHT22;1879;45.876;12.300;2023-02-28T05:00:12;5.90;59.70
3727;DHT22;1879;45.876;12.300;2023-02-28T05:02:42;5.90;59.70
3727;DHT22;1879;45.876;12.300;2023-02-28T05:05:09;5.90;59.90
3727;DHT22;1879;45.876;12.300;2023-02-28T05:07:37;5.80;60.40
3727;DHT22;1879;45.876;12.300;2023-02-28T05:10:05;5.80;60.20
3727;DHT22;1879;45.876;12.300;2023-02-28T05:12:32;5.80;60.40
3727;DHT22;1879;45.876;12.300;2023-02-28T05:15:01;5.70;60.20
3727;DHT22;1879;45.876;12.300;2023-02-28T05:17:28;5.70;60.30
3727;DHT22;1879;45.876;12.300;2023-02-28T05:19:55;5.70;60.90
3727;DHT22;1879;45.876;12.300;2023-02-28T05:22:21;5.60;60.80
3727;DHT22;1879;45.876;12.300;2023-02-28T05:24:49;5.60;60.70
3727;DHT22;1879;45.876;12.300;2023-02-28T05:27:16;5.60;60.70
3727;DHT22;1879;45.876;12.300;2023-02-28T05:29:43;5.60;60.80
3727;DHT22;1879;45.876;12.300;2023-02-28T05:32:12;5.60;61.10
3727;DHT22;1879;45.876;12.300;2023-02-28T05:34:40;5.70;61.40
3727;DHT22;1879;45.876;12.300;2023-02-28T05:37:11;5.70;60.60
3727;DHT22;1879;45.876;12.300;2023-02-28T05:39:38;5.70;60.40
3727;DHT22;1879;45.876;12.300;2023-02-28T05:42:05;5.70;60.50
3727;DHT22;1879;45.876;12.300;2023-02-28T05:44:33;5.70;60.60
3727;DHT22;1879;45.876;12.300;2023-02-28T05:47:00;5.70;60.50
3727;DHT22;1879;45.876;12.300;2023-02-28T05:49:28;5.70;60.40
3727;DHT22;1879;45.876;12.300;2023-02-28T05:51:55;5.70;60.60
3727;DHT22;1879;45.876;12.300;2023-02-28T05:54:22;5.60;60.70
3727;DHT22;1879;45.876;12.300;2023-02-28T05:56:49;5.60;61.10
3727;DHT22;1879;45.876;12.300;2023-02-28T05:59:16;5.60;61.10
3727;DHT22;1879;45.876;12.300;2023-02-28T06:01:44;5.50;61.40
3727;DHT22;1879;45.876;12.300;2023-02-28T06:04:15;5.50;61.60
3727;DHT22;1879;45.876;12.300;2023-02-28T06:06:45;5.50;61.90
3727;DHT22;1879;45.876;12.300;2023-02-28T06:09:12;5.40;62.00
3727;DHT22;1879;45.876;12.300;2023-02-28T06:11:39;5.40;62.00
3727;DHT22;1879;45.876;12.300;2023-02-28T06:14:06;5.40;61.90
3727;DHT22;1879;45.876;12.300;2023-02-28T06:16:34;5.40;62.20
3727;DHT22;1879;45.876;12.300;2023-02-28T06:19:03;5.40;62.50
3727;DHT22;1879;45.876;12.300;2023-02-28T06:21:31;5.40;63.10
3727;DHT22;1879;45.876;12.300;2023-02-28T06:23:59;5.40;63.30
3727;DHT22;1879;45.876;12.300;2023-02-28T06:26:27;5.30;63.50
3727;DHT22;1879;45.876;12.300;2023-02-28T06:28:54;5.40;63.90
3727;DHT22;1879;45.876;12.300;2023-02-28T06:31:21;5.40;64.00
3727;DHT22;1879;45.876;12.300;2023-02-28T06:33:49;5.40;64.10
3727;DHT22;1879;45.876;12.300;2023-02-28T06:36:17;5.50;64.10
3727;DHT22;1879;45.876;12.300;2023-02-28T06:38:44;5.60;64.50
3727;DHT22;1879;45.876;12.300;2023-02-28T06:41:17;5.80;64.10
3727;DHT22;1879;45.876;12.300;2023-02-28T06:43:45;5.90;63.20
3727;DHT22;1879;45.876;12.300;2023-02-28T06:46:13;6.00;62.90
3727;DHT22;1879;45.876;12.300;2023-02-28T06:48:41;6.10;62.10
3727;DHT22;1879;45.876;12.300;2023-02-28T06:51:09;6.20;61.80
3727;DHT22;1879;45.876;12.300;2023-02-28T06:53:37;6.30;61.60
3727;DHT22;1879;45.876;12.300;2023-02-28T06:56:04;6.40;61.60
3727;DHT22;1879;45.876;12.300;2023-02-28T06:58:34;6.50;61.20
3727;DHT22;1879;45.876;12.300;2023-02-28T07:01:01;6.50;61.10
3727;DHT22;1879;45.876;12.300;2023-02-28T07:03:29;6.60;60.90
3727;DHT22;1879;45.876;12.300;2023-02-28T07:05:56;6.70;61.10
3727;DHT22;1879;45.876;12.300;2023-02-28T07:08:23;6.70;60.30
3727;DHT22;1879;45.876;12.300;2023-02-28T07:10:52;6.70;60.40
3727;DHT22;1879;45.876;12.300;2023-02-28T07:13:20;6.80;60.00
3727;DHT22;1879;45.876;12.300;2023-02-28T07:15:54;6.80;60.10
3727;DHT22;1879;45.876;12.300;2023-02-28T07:18:22;6.90;60.10
3727;DHT22;1879;45.876;12.300;2023-02-28T07:20:49;7.00;60.80
3727;DHT22;1879;45.876;12.300;2023-02-28T07:23:16;6.90;59.90
3727;DHT22;1879;45.876;12.300;2023-02-28T07:25:43;7.00;59.90
3727;DHT22;1879;45.876;12.300;2023-02-28T07:28:11;7.00;59.50
3727;DHT22;1879;45.876;12.300;2023-02-28T07:30:38;7.00;59.20
3727;DHT22;1879;45.876;12.300;2023-02-28T07:33:07;7.00;59.70
3727;DHT22;1879;45.876;12.300;2023-02-28T07:35:34;7.10;59.20
3727;DHT22;1879;45.876;12.300;2023-02-28T07:38:02;7.10;58.90
3727;DHT22;1879;45.876;12.300;2023-02-28T07:40:30;7.10;58.70
3727;DHT22;1879;45.876;12.300;2023-02-28T07:42:59;7.20;59.00
3727;DHT22;1879;45.876;12.300;2023-02-28T07:45:26;7.20;58.80
3727;DHT22;1879;45.876;12.300;2023-02-28T07:47:54;7.20;59.40
3727;DHT22;1879;45.876;12.300;2023-02-28T07:50:23;7.30;59.10
3727;DHT22;1879;45.876;12.300;2023-02-28T07:52:50;7.40;58.60
3727;DHT22;1879;45.876;12.300;2023-02-28T07:55:17;7.40;58.40
3727;DHT22;1879;45.876;12.300;2023-02-28T07:57:44;7.50;58.70
3727;DHT22;1879;45.876;12.300;2023-02-28T08:00:12;7.50;58.10
3727;DHT22;1879;45.876;12.300;2023-02-28T08:02:39;7.40;58.10
3727;DHT22;1879;45.876;12.300;2023-02-28T08:05:07;7.40;57.90
3727;DHT22;1879;45.876;12.300;2023-02-28T08:07:36;7.40;58.10
3727;DHT22;1879;45.876;12.300;2023-02-28T08:10:04;7.40;57.70
3727;DHT22;1879;45.876;12.300;2023-02-28T08:12:32;7.40;57.90
3727;DHT22;1879;45.876;12.300;2023-02-28T08:14:59;7.40;58.00
3727;DHT22;1879;45.876;12.300;2023-02-28T08:17:26;7.40;58.10
3727;DHT22;1879;45.876;12.300;2023-02-28T08:19:53;7.50;58.30
3727;DHT22;1879;45.876;12.300;2023-02-28T08:22:20;7.50;57.90
3727;DHT22;1879;45.876;12.300;2023-02-28T08:24:48;7.60;58.10
3727;DHT22;1879;45.876;12.300;2023-02-28T08:27:15;7.60;58.30
3727;DHT22;1879;45.876;12.300;2023-02-28T08:29:42;7.50;58.50
3727;DHT22;1879;45.876;12.300;2023-02-28T08:32:09;7.60;58.70
3727;DHT22;1879;45.876;12.300;2023-02-28T08:34:39;7.60;59.10
3727;DHT22;1879;45.876;12.300;2023-02-28T08:37:06;7.60;58.70
3727;DHT22;1879;45.876;12.300;2023-02-28T08:39:34;7.60;58.50
3727;DHT22;1879;45.876;12.300;2023-02-28T08:42:04;7.80;58.60
3727;DHT22;1879;45.876;12.300;2023-02-28T08:44:31;7.90;59.00
3727;DHT22;1879;45.876;12.300;2023-02-28T08:46:58;7.90;58.80
3727;DHT22;1879;45.876;12.300;2023-02-28T08:49:25;8.00;58.40
3727;DHT22;1879;45.876;12.300;2023-02-28T08:51:52;8.10;58.80
3727;DHT22;1879;45.876;12.300;2023-02-28T08:54:20;8.20;58.30
3727;DHT22;1879;45.876;12.300;2023-02-28T08:56:48;8.30;57.90
3727;DHT22;1879;45.876;12.300;2023-02-28T08:59:17;8.40;57.90
3727;DHT22;1879;45.876;12.300;2023-02-28T09:01:44;8.40;57.60
3727;DHT22;1879;45.876;12.300;2023-02-28T09:04:11;8.50;58.00
3727;DHT22;1879;45.876;12.300;2023-02-28T09:06:38;8.60;58.10
3727;DHT22;1879;45.876;12.300;2023-02-28T09:09:05;8.70;57.00
3727;DHT22;1879;45.876;12.300;2023-02-28T09:11:33;8.80;56.60
3727;DHT22;1879;45.876;12.300;2023-02-28T09:14:01;8.80;56.80
3727;DHT22;1879;45.876;12.300;2023-02-28T09:16:31;9.20;62.00
3727;DHT22;1879;45.876;12.300;2023-02-28T09:18:58;9.30;58.30
3727;DHT22;1879;45.876;12.300;2023-02-28T09:21:26;9.30;57.00
3727;DHT22;1879;45.876;12.300;2023-02-28T09:23:53;9.30;57.00
3727;DHT22;1879;45.876;12.300;2023-02-28T09:26:21;9.30;58.00
3727;DHT22;1879;45.876;12.300;2023-02-28T09:28:49;9.30;56.70
3727;DHT22;1879;45.876;12.300;2023-02-28T09:31:19;9.30;57.00
3727;DHT22;1879;45.876;12.300;2023-02-28T09:33:49;9.40;57.70
3727;DHT22;1879;45.876;12.300;2023-02-28T09:36:16;9.40;57.40
3727;DHT22;1879;45.876;12.300;2023-02-28T09:38:43;9.40;56.90
3727;DHT22;1879;45.876;12.300;2023-02-28T09:41:14;9.30;56.20
3727;DHT22;1879;45.876;12.300;2023-02-28T09:43:45;9.40;56.10
3727;DHT22;1879;45.876;12.300;2023-02-28T09:46:25;9.40;56.70
3727;DHT22;1879;45.876;12.300;2023-02-28T09:48:56;9.50;56.50
3727;DHT22;1879;45.876;12.300;2023-02-28T09:51:33;9.60;55.80
3727;DHT22;1879;45.876;12.300;2023-02-28T09:54:03;9.70;56.90
3727;DHT22;1879;45.876;12.300;2023-02-28T09:56:33;9.80;56.60
3727;DHT22;1879;45.876;12.300;2023-02-28T09:59:12;9.80;57.00
3727;DHT22;1879;45.876;12.300;2023-02-28T10:01:48;9.80;57.00
3727;DHT22;1879;45.876;12.300;2023-02-28T10:04:37;9.80;56.70
3727;DHT22;1879;45.876;12.300;2023-02-28T10:07:18;9.90;56.00
3727;DHT22;1879;45.876;12.300;2023-02-28T10:09:50;10.00;55.50
3727;DHT22;1879;45.876;12.300;2023-02-28T10:12:19;10.00;55.20
3727;DHT22;1879;45.876;12.300;2023-02-28T10:14:48;10.10;55.10
3727;DHT22;1879;45.876;12.300;2023-02-28T10:17:21;10.30;55.60
3727;DHT22;1879;45.876;12.300;2023-02-28T10:19:57;10.30;55.30
3727;DHT22;1879;45.876;12.300;2023-02-28T10:22:31;10.40;54.60
3727;DHT22;1879;45.876;12.300;2023-02-28T10:25:18;10.50;54.70
3727;DHT22;1879;45.876;12.300;2023-02-28T10:27:45;10.50;54.40
3727;DHT22;1879;45.876;12.300;2023-02-28T10:30:13;10.70;55.00
3727;DHT22;1879;45.876;12.300;2023-02-28T10:32:43;10.70;55.00
3727;DHT22;1879;45.876;12.300;2023-02-28T10:35:17;10.80;53.80
3727;DHT22;1879;45.876;12.300;2023-02-28T10:37:48;10.70;53.40
3727;DHT22;1879;45.876;12.300;2023-02-28T10:40:29;10.80;53.50
3727;DHT22;1879;45.876;12.300;2023-02-28T10:42:57;11.00;53.20
3727;DHT22;1879;45.876;12.300;2023-02-28T10:45:26;11.10;53.80
3727;DHT22;1879;45.876;12.300;2023-02-28T10:47:55;11.30;54.50
3727;DHT22;1879;45.876;12.300;2023-02-28T10:50:31;11.40;54.40
3727;DHT22;1879;45.876;12.300;2023-02-28T10:53:24;11.40;54.20
3727;DHT22;1879;45.876;12.300;2023-02-28T10:56:00;11.60;53.30
3727;DHT22;1879;45.876;12.300;2023-02-28T10:58:29;11.50;51.70
3727;DHT22;1879;45.876;12.300;2023-02-28T11:00:58;11.60;53.30
3727;DHT22;1879;45.876;12.300;2023-02-28T11:03:30;11.70;53.50
3727;DHT22;1879;45.876;12.300;2023-02-28T11:06:04;11.80;53.70
3727;DHT22;1879;45.876;12.300;2023-02-28T11:08:32;11.90;53.00
3727;DHT22;1879;45.876;12.300;2023-02-28T11:11:05;12.00;52.90
3727;DHT22;1879;45.876;12.300;2023-02-28T11:13:35;12.00;53.00
3727;DHT22;1879;45.876;12.300;2023-02-28T11:16:05;12.10;52.60
3727;DHT22;1879;45.876;12.300;2023-02-28T11:18:39;12.20;52.30
3727;DHT22;1879;45.876;12.300;2023-02-28T11:21:10;12.30;53.00
3727;DHT22;1879;45.876;12.300;2023-02-28T11:23:42;12.50;52.30
3727;DHT22;1879;45.876;12.300;2023-02-28T11:26:09;12.50;52.10
3727;DHT22;1879;45.876;12.300;2023-02-28T11:28:39;12.60;51.70
3727;DHT22;1879;45.876;12.300;2023-02-28T11:31:16;12.80;51.40
3727;DHT22;1879;45.876;12.300;2023-02-28T11:33:47;13.30;51.10
3727;DHT22;1879;45.876;12.300;2023-02-28T11:36:19;13.60;51.30
3727;DHT22;1879;45.876;12.300;2023-02-28T11:38:48;14.10;49.80
3727;DHT22;1879;45.876;12.300;2023-02-28T11:41:28;15.20;50.00
3727;DHT22;1879;45.876;12.300;2023-02-28T11:44:09;16.10;47.40
3727;DHT22;1879;45.876;12.300;2023-02-28T11:46:42;17.20;46.30
3727;DHT22;1879;45.876;12.300;2023-02-28T11:49:21;18.30;44.90
3727;DHT22;1879;45.876;12.300;2023-02-28T11:51:56;19.00;43.90
3727;DHT22;1879;45.876;12.300;2023-02-28T11:54:39;20.00;43.30
3727;DHT22;1879;45.876;12.300;2023-02-28T11:57:24;21.20;41.20
3727;DHT22;1879;45.876;12.300;2023-02-28T12:00:00;21.80;44.10
3727;DHT22;1879;45.876;12.300;2023-02-28T12:02:48;22.20;38.60
3727;DHT22;1879;45.876;12.300;2023-02-28T12:05:26;22.80;37.60
3727;DHT22;1879;45.876;12.300;2023-02-28T12:10:32;24.20;35.60
3727;DHT22;1879;45.876;12.300;2023-02-28T12:13:08;24.20;99.90
3727;DHT22;1879;45.876;12.300;2023-02-28T12:15:50;24.40;99.90
3727;DHT22;1879;45.876;12.300;2023-02-28T12:18:31;24.30;99.90
3727;DHT22;1879;45.876;12.300;2023-02-28T12:21:14;25.20;99.90
3727;DHT22;1879;45.876;12.300;2023-02-28T12:24:01;25.60;99.90
3727;DHT22;1879;45.876;12.300;2023-02-28T12:26:36;25.50;99.90
3727;DHT22;1879;45.876;12.300;2023-02-28T12:29:11;25.40;99.90
3727;DHT22;1879;45.876;12.300;2023-02-28T12:31:41;25.80;99.90
3727;DHT22;1879;45.876;12.300;2023-02-28T12:34:12;26.20;99.90
3727;DHT22;1879;45.876;12.300;2023-02-28T12:36:40;26.50;99.90
3727;DHT22;1879;45.876;12.300;2023-02-28T12:39:14;26.70;99.90
3727;DHT22;1879;45.876;12.300;2023-02-28T12:41:48;27.00;99.90
3727;DHT22;1879;45.876;12.300;2023-02-28T12:44:20;26.90;99.90
3727;DHT22;1879;45.876;12.300;2023-02-28T12:46:51;26.40;99.90
3727;DHT22;1879;45.876;12.300;2023-02-28T12:49:25;26.60;99.90
3727;DHT22;1879;45.876;12.300;2023-02-28T12:51:56;26.90;99.90
3727;DHT22;1879;45.876;12.300;2023-02-28T12:54:31;26.90;99.90
3727;DHT22;1879;45.876;12.300;2023-02-28T12:57:05;26.80;99.90
3727;DHT22;1879;45.876;12.300;2023-02-28T12:59:39;26.80;99.90
3727;DHT22;1879;45.876;12.300;2023-02-28T13:05:38;26.80;99.90
3727;DHT22;1879;45.876;12.300;2023-02-28T13:08:27;27.00;99.90
3727;DHT22;1879;45.876;12.300;2023-02-28T13:11:03;26.60;99.90
3727;DHT22;1879;45.876;12.300;2023-02-28T13:13:31;26.60;99.90
3727;DHT22;1879;45.876;12.300;2023-02-28T13:16:01;26.40;99.90
3727;DHT22;1879;45.876;12.300;2023-02-28T13:18:34;26.70;99.90
3727;DHT22;1879;45.876;12.300;2023-02-28T13:21:04;26.80;99.90
3727;DHT22;1879;45.876;12.300;2023-02-28T13:23:57;27.50;99.90
3727;DHT22;1879;45.876;12.300;2023-02-28T13:29:33;28.10;99.90
3727;DHT22;1879;45.876;12.300;2023-02-28T13:32:29;28.30;99.90
3727;DHT22;1879;45.876;12.300;2023-02-28T13:38:32;27.90;99.90
3727;DHT22;1879;45.876;12.300;2023-02-28T13:44:17;27.50;99.90
3727;DHT22;1879;45.876;12.300;2023-02-28T13:50:18;26.80;99.90
3727;DHT22;1879;45.876;12.300;2023-02-28T13:52:51;27.30;99.90
3727;DHT22;1879;45.876;12.300;2023-02-28T13:55:35;26.80;99.90
3727;DHT22;1879;45.876;12.300;2023-02-28T13:58:39;26.50;99.90
3727;DHT22;1879;45.876;12.300;2023-02-28T14:01:21;26.40;99.90
3727;DHT22;1879;45.876;12.300;2023-02-28T14:04:06;26.10;99.90
3727;DHT22;1879;45.876;12.300;2023-02-28T14:06:38;26.00;99.90
3727;DHT22;1879;45.876;12.300;2023-02-28T14:09:21;25.90;99.90
3727;DHT22;1879;45.876;12.300;2023-02-28T14:11:49;26.10;99.90
3727;DHT22;1879;45.876;12.300;2023-02-28T14:17:17;26.30;99.90
3727;DHT22;1879;45.876;12.300;2023-02-28T14:19:45;26.20;99.90
3727;DHT22;1879;45.876;12.300;2023-02-28T14:22:36;26.20;99.90
3727;DHT22;1879;45.876;12.300;2023-02-28T14:25:18;25.80;99.90
3727;DHT22;1879;45.876;12.300;2023-02-28T14:27:50;25.70;99.90
3727;DHT22;1879;45.876;12.300;2023-02-28T14:30:49;25.60;99.90
3727;DHT22;1879;45.876;12.300;2023-02-28T14:33:26;25.30;99.90
3727;DHT22;1879;45.876;12.300;2023-02-28T14:36:10;24.70;99.90
3727;DHT22;1879;45.876;12.300;2023-02-28T14:38:44;24.20;99.90
3727;DHT22;1879;45.876;12.300;2023-02-28T14:41:17;23.70;99.90
3727;DHT22;1879;45.876;12.300;2023-02-28T14:43:54;23.00;99.90
3727;DHT22;1879;45.876;12.300;2023-02-28T14:46:23;22.30;99.90
3727;DHT22;1879;45.876;12.300;2023-02-28T14:48:51;21.90;99.90
3727;DHT22;1879;45.876;12.300;2023-02-28T14:51:19;21.00;99.90
3727;DHT22;1879;45.876;12.300;2023-02-28T14:53:55;20.20;99.90
3727;DHT22;1879;45.876;12.300;2023-02-28T14:56:26;19.80;99.90
3727;DHT22;1879;45.876;12.300;2023-02-28T14:58:54;19.40;99.90
3727;DHT22;1879;45.876;12.300;2023-02-28T15:01:23;19.20;99.90
3727;DHT22;1879;45.876;12.300;2023-02-28T15:03:59;18.90;99.90
3727;DHT22;1879;45.876;12.300;2023-02-28T15:06:27;18.30;99.90
3727;DHT22;1879;45.876;12.300;2023-02-28T15:09:14;17.90;99.90
3727;DHT22;1879;45.876;12.300;2023-02-28T15:11:44;17.50;99.90
3727;DHT22;1879;45.876;12.300;2023-02-28T15:14:16;17.40;99.90
3727;DHT22;1879;45.876;12.300;2023-02-28T15:16:47;17.40;99.90
3727;DHT22;1879;45.876;12.300;2023-02-28T15:19:21;17.50;99.90
3727;DHT22;1879;45.876;12.300;2023-02-28T15:21:53;17.40;99.90
3727;DHT22;1879;45.876;12.300;2023-02-28T15:24:30;17.30;99.90
3727;DHT22;1879;45.876;12.300;2023-02-28T15:27:00;17.30;99.90
3727;DHT22;1879;45.876;12.300;2023-02-28T15:29:34;17.40;99.90
3727;DHT22;1879;45.876;12.300;2023-02-28T15:32:05;17.30;99.90
3727;DHT22;1879;45.876;12.300;2023-02-28T15:34:35;17.60;99.90
3727;DHT22;1879;45.876;12.300;2023-02-28T15:37:06;17.90;99.90
3727;DHT22;1879;45.876;12.300;2023-02-28T15:39:53;18.00;99.90
3727;DHT22;1879;45.876;12.300;2023-02-28T15:42:22;17.90;99.90
3727;DHT22;1879;45.876;12.300;2023-02-28T15:44:49;18.00;99.90
3727;DHT22;1879;45.876;12.300;2023-02-28T15:47:19;18.00;99.90
3727;DHT22;1879;45.876;12.300;2023-02-28T15:49:49;18.30;99.90
3727;DHT22;1879;45.876;12.300;2023-02-28T15:52:19;18.30;99.90
3727;DHT22;1879;45.876;12.300;2023-02-28T15:54:48;18.00;99.90
3727;DHT22;1879;45.876;12.300;2023-02-28T15:57:19;17.60;99.90
3727;DHT22;1879;45.876;12.300;2023-02-28T15:59:51;17.30;99.90
3727;DHT22;1879;45.876;12.300;2023-02-28T16:02:21;17.00;99.90
3727;DHT22;1879;45.876;12.300;2023-02-28T16:04:59;16.50;99.90
3727;DHT22;1879;45.876;12.300;2023-02-28T16:07:27;16.10;99.90
3727;DHT22;1879;45.876;12.300;2023-02-28T16:09:54;15.70;99.90
3727;DHT22;1879;45.876;12.300;2023-02-28T16:12:26;15.40;99.90
3727;DHT22;1879;45.876;12.300;2023-02-28T16:14:55;15.10;99.90
3727;DHT22;1879;45.876;12.300;2023-02-28T16:19:51;14.60;99.90
3727;DHT22;1879;45.876;12.300;2023-02-28T16:22:18;14.40;99.90
3727;DHT22;1879;45.876;12.300;2023-02-28T16:24:45;14.30;99.90
3727;DHT22;1879;45.876;12.300;2023-02-28T16:27:18;14.20;99.90
3727;DHT22;1879;45.876;12.300;2023-02-28T16:29:48;14.20;99.90
3727;DHT22;1879;45.876;12.300;2023-02-28T16:32:15;14.00;99.90
3727;DHT22;1879;45.876;12.300;2023-02-28T16:34:43;13.90;99.90
3727;DHT22;1879;45.876;12.300;2023-02-28T16:37:15;13.70;99.90
3727;DHT22;1879;45.876;12.300;2023-02-28T16:39:44;13.40;99.90
3727;DHT22;1879;45.876;12.300;2023-02-28T16:42:16;13.20;99.90
3727;DHT22;1879;45.876;12.300;2023-02-28T16:44:47;12.90;99.90
3727;DHT22;1879;45.876;12.300;2023-02-28T16:47:15;12.70;99.90